createdAt,value
2019-03-15T00:02:13.081Z,98259.86
2019-03-15T00:04:42.489Z,98261.52
2019-03-15T00:07:11.920Z,98275.80
2019-03-15T00:09:41.338Z,98282.02
2019-03-15T00:12:10.766Z,98284.38
2019-03-15T00:14:40.184Z,98285.58
2019-03-15T00:17:09.677Z,98290.55
2019-03-15T00:19:39.041Z,98299.73
2019-03-15T00:22:08.779Z,98300.00
2019-03-15T00:24:38.209Z,98313.29
2019-03-15T00:27:07.704Z,98314.33
2019-03-15T00:29:37.129Z,98314.43
2019-03-15T00:32:06.553Z,98313.69
2019-03-15T00:34:35.970Z,98309.63
2019-03-15T00:37:05.402Z,98315.34
2019-03-15T00:39:34.827Z,98319.70
2019-03-15T00:42:04.336Z,98321.39
2019-03-15T00:44:33.753Z,98311.11
2019-03-15T00:47:03.183Z,98321.64
2019-03-15T00:49:32.607Z,98322.48
2019-03-15T00:52:02.041Z,98314.08
2019-03-15T00:54:31.467Z,98316.13
2019-03-15T00:57:00.896Z,98316.19
2019-03-15T00:59:30.327Z,98311.05
2019-03-15T01:01:59.805Z,98311.48
2019-03-15T01:04:29.350Z,98320.06
2019-03-15T01:06:58.784Z,98314.85
2019-03-15T01:09:28.200Z,98323.20
2019-03-15T01:11:57.632Z,98318.84
2019-03-15T01:14:27.052Z,98320.77
2019-03-15T01:16:56.483Z,98325.78
2019-03-15T01:19:25.901Z,98330.42
2019-03-15T01:21:55.408Z,98320.34
2019-03-15T01:24:24.830Z,98320.28
2019-03-15T01:26:54.261Z,98310.81
2019-03-15T01:29:23.686Z,98315.01
2019-03-15T01:31:53.127Z,98313.22
2019-03-15T01:34:22.575Z,98315.92
2019-03-15T01:36:51.980Z,98312.44
2019-03-15T01:39:21.401Z,98320.15
2019-03-15T01:41:50.847Z,98326.52
2019-03-15T01:44:20.266Z,98326.95
2019-03-15T01:46:49.699Z,98322.08
2019-03-15T01:49:19.472Z,98323.06
2019-03-15T01:51:49.196Z,98334.16
2019-03-15T01:54:18.604Z,98327.36
2019-03-15T01:56:48.030Z,98333.78
2019-03-15T01:59:17.469Z,98335.07
2019-03-15T02:01:46.887Z,98340.99
2019-03-15T02:04:16.303Z,98336.59
2019-03-15T02:06:45.737Z,98338.94
2019-03-15T02:09:15.173Z,98337.13
2019-03-15T02:11:44.599Z,98335.65
2019-03-15T02:14:14.023Z,98337.58
2019-03-15T02:16:43.454Z,98341.63
2019-03-15T02:19:12.884Z,98332.64
2019-03-15T02:21:43.011Z,98328.58
2019-03-15T02:24:13.485Z,98334.94
2019-03-15T02:26:43.021Z,98327.36
2019-03-15T02:29:12.459Z,98335.95
2019-03-15T02:31:41.902Z,98337.88
2019-03-15T02:34:11.311Z,98324.14
2019-03-15T02:36:40.737Z,98330.16
2019-03-15T02:39:10.167Z,98328.44
2019-03-15T02:41:39.587Z,98330.70
2019-03-15T02:44:09.026Z,98311.29
2019-03-15T02:46:38.449Z,98312.31
2019-03-15T02:49:08.394Z,98314.95
2019-03-15T02:51:37.982Z,98308.08
2019-03-15T02:54:07.439Z,98315.66
2019-03-15T02:56:36.834Z,98314.38
2019-03-15T02:59:06.581Z,98310.08
2019-03-15T03:01:36.003Z,98306.15
2019-03-15T03:04:05.442Z,98300.80
2019-03-15T03:06:34.870Z,98300.87
2019-03-15T03:09:07.242Z,98298.23
2019-03-15T03:11:37.237Z,98306.34
2019-03-15T03:14:07.000Z,98305.37
2019-03-15T03:16:36.427Z,98305.27
2019-03-15T03:19:05.860Z,98303.98
2019-03-15T03:21:35.286Z,98301.78
2019-03-15T03:24:04.720Z,98303.44
2019-03-15T03:26:34.149Z,98316.94
2019-03-15T03:29:03.570Z,98322.16
2019-03-15T03:31:32.996Z,98320.05
2019-03-15T03:34:02.448Z,98327.77
2019-03-15T03:36:31.857Z,98339.98
2019-03-15T03:39:01.295Z,98345.00
2019-03-15T03:41:30.860Z,98335.66
2019-03-15T03:44:00.287Z,98342.05
2019-03-15T03:46:29.714Z,98343.84
2019-03-15T03:48:59.150Z,98346.79
2019-03-15T03:51:28.571Z,98355.59
2019-03-15T03:53:58.002Z,98356.84
2019-03-15T03:56:27.425Z,98362.87
2019-03-15T03:58:57.198Z,98366.16
2019-03-15T04:01:26.624Z,98373.50
2019-03-15T04:03:56.120Z,98380.57
2019-03-15T04:06:25.541Z,98378.95
2019-03-15T04:08:54.979Z,98377.53
2019-03-15T04:11:24.399Z,98374.07
2019-03-15T04:13:53.834Z,98363.00
2019-03-15T04:16:23.266Z,98352.58
2019-03-15T04:18:52.681Z,98368.79
2019-03-15T04:21:22.110Z,98379.00
2019-03-15T04:23:51.543Z,98380.20
2019-03-15T04:26:21.264Z,98365.43
2019-03-15T04:28:50.719Z,98371.44
2019-03-15T04:31:20.119Z,98367.45
2019-03-15T04:33:49.548Z,98373.80
2019-03-15T04:36:18.975Z,98374.08
2019-03-15T04:38:48.413Z,98367.66
2019-03-15T04:41:17.837Z,98373.80
2019-03-15T04:43:47.374Z,98366.72
2019-03-15T04:46:16.769Z,98366.95
2019-03-15T04:48:46.210Z,98368.44
2019-03-15T04:51:15.632Z,98381.58
2019-03-15T04:53:45.047Z,98368.70
2019-03-15T04:56:14.483Z,98367.20
2019-03-15T04:58:43.902Z,98364.80
2019-03-15T05:01:13.646Z,98364.50
2019-03-15T05:03:43.066Z,98367.58
2019-03-15T05:06:12.502Z,98361.55
2019-03-15T05:08:41.921Z,98358.06
2019-03-15T05:11:11.351Z,98362.57
2019-03-15T05:13:40.769Z,98357.94
2019-03-15T05:16:10.199Z,98352.88
2019-03-15T05:18:39.620Z,98357.06
2019-03-15T05:21:09.061Z,98346.00
2019-03-15T05:23:38.480Z,98352.95
2019-03-15T05:26:07.922Z,98345.64
2019-03-15T05:28:37.352Z,98343.30
2019-03-15T05:31:06.787Z,98344.65
2019-03-15T05:33:36.217Z,98341.06
2019-03-15T05:36:05.644Z,98343.80
2019-03-15T05:38:35.324Z,98343.06
2019-03-15T05:41:05.145Z,98339.85
2019-03-15T05:43:34.559Z,98341.64
2019-03-15T05:46:04.057Z,98339.08
2019-03-15T05:48:33.484Z,98339.24
2019-03-15T05:51:02.910Z,98331.73
2019-03-15T05:53:32.346Z,98331.66
2019-03-15T05:56:02.076Z,98339.31
2019-03-15T05:58:31.502Z,98336.63
2019-03-15T06:01:00.949Z,98338.56
2019-03-15T06:03:30.386Z,98340.94
2019-03-15T06:05:59.821Z,98346.08
2019-03-15T06:08:29.241Z,98352.20
2019-03-15T06:10:58.673Z,98339.28
2019-03-15T06:13:28.097Z,98347.56
2019-03-15T06:15:57.534Z,98347.06
2019-03-15T06:18:26.961Z,98344.86
2019-03-15T06:20:56.402Z,98346.15
2019-03-15T06:23:25.819Z,98342.66
2019-03-15T06:25:55.260Z,98344.55
2019-03-15T06:28:24.683Z,98350.14
2019-03-15T06:30:54.123Z,98348.86
2019-03-15T06:33:23.546Z,98352.20
2019-03-15T06:35:52.970Z,98357.35
2019-03-15T06:38:22.396Z,98353.42
2019-03-15T06:40:51.825Z,98357.48
2019-03-15T06:43:21.253Z,98356.91
2019-03-15T06:45:50.690Z,98373.09
2019-03-15T06:48:20.110Z,98369.23
2019-03-15T06:50:49.551Z,98367.64
2019-03-15T06:53:18.966Z,98364.22
2019-03-15T06:55:48.389Z,98380.37
2019-03-15T06:58:17.824Z,98372.28
2019-03-15T07:00:47.242Z,98379.22
2019-03-15T07:03:16.679Z,98372.08
2019-03-15T07:05:46.109Z,98382.16
2019-03-15T07:08:15.540Z,98379.36
2019-03-15T07:10:44.979Z,98376.24
2019-03-15T07:13:14.416Z,98377.42
2019-03-15T07:15:44.773Z,98380.23
2019-03-15T07:18:14.381Z,98380.23
2019-03-15T07:20:43.801Z,98386.67
2019-03-15T07:23:13.253Z,98383.72
2019-03-15T07:25:42.671Z,98384.23
2019-03-15T07:28:12.106Z,98379.35
2019-03-15T07:30:41.536Z,98373.70
2019-03-15T07:33:10.963Z,98372.44
2019-03-15T07:35:40.393Z,98364.56
2019-03-15T07:38:09.832Z,98363.06
2019-03-15T07:40:39.253Z,98363.40
2019-03-15T07:43:08.688Z,98363.33
2019-03-15T07:45:38.343Z,98355.90
2019-03-15T07:48:21.375Z,98360.47
2019-03-15T07:50:38.928Z,98358.30
2019-03-15T07:53:08.368Z,98352.74
2019-03-15T07:55:37.797Z,98361.63
2019-03-15T07:58:07.600Z,98354.05
2019-03-15T08:00:37.233Z,98350.62
2019-03-15T08:03:06.709Z,98345.81
2019-03-15T08:05:36.094Z,98338.30
2019-03-15T08:08:05.531Z,98340.17
2019-03-15T08:10:34.950Z,98337.45
2019-03-15T08:13:04.382Z,98341.09
2019-03-15T08:15:33.809Z,98345.66
2019-03-15T08:18:03.245Z,98341.74
2019-03-15T08:20:32.667Z,98343.58
2019-03-15T08:23:02.100Z,98338.28
2019-03-15T08:25:31.525Z,98336.53
2019-03-15T08:28:00.964Z,98338.33
2019-03-15T08:30:30.671Z,98329.88
2019-03-15T08:33:10.112Z,98322.41
2019-03-15T08:35:31.257Z,98323.30
2019-03-15T08:38:00.690Z,98316.20
2019-03-15T08:40:30.120Z,98311.42
2019-03-15T08:42:59.850Z,98306.30
2019-03-15T08:45:29.270Z,98309.91
2019-03-15T08:47:58.710Z,98307.56
2019-03-15T08:50:28.134Z,98300.83
2019-03-15T08:52:57.564Z,98302.41
2019-03-15T08:55:26.986Z,98304.43
2019-03-15T08:57:56.424Z,98299.47
2019-03-15T09:00:25.855Z,98302.05
2019-03-15T09:02:55.284Z,98296.23
2019-03-15T09:05:24.711Z,98286.45
2019-03-15T09:07:54.145Z,98291.26
2019-03-15T09:10:24.186Z,98284.52
2019-03-15T09:12:53.773Z,98278.12
2019-03-15T09:15:23.205Z,98280.62
2019-03-15T09:17:52.634Z,98284.00
2019-03-15T09:20:22.098Z,98274.18
2019-03-15T09:22:51.513Z,98269.77
2019-03-15T09:25:21.233Z,98271.70
2019-03-15T09:27:50.980Z,98268.73
2019-03-15T09:30:24.431Z,98259.27
2019-03-15T09:32:51.572Z,98258.52
2019-03-15T09:35:21.215Z,98256.72
2019-03-15T09:37:50.602Z,98264.22
2019-03-15T09:40:20.035Z,98258.62
2019-03-15T09:42:49.461Z,98245.89
2019-03-15T09:45:19.708Z,98244.89
2019-03-15T09:47:49.133Z,98247.02
2019-03-15T09:50:33.215Z,98246.72
2019-03-15T09:52:49.785Z,98239.75
2019-03-15T09:55:31.859Z,98234.23
2019-03-15T09:57:50.370Z,98237.85
2019-03-15T10:00:20.824Z,98245.67
2019-03-15T10:02:50.244Z,98244.75
2019-03-15T10:05:19.681Z,98245.30
2019-03-15T10:07:49.109Z,98238.86
2019-03-15T10:10:19.900Z,98236.34
2019-03-15T10:12:49.492Z,98236.74
2019-03-15T10:15:19.099Z,98233.86
2019-03-15T10:17:48.531Z,98236.83
2019-03-15T10:20:18.034Z,98231.39
2019-03-15T10:23:04.311Z,98224.67
2019-03-15T10:25:18.899Z,98228.22
2019-03-15T10:27:48.327Z,98235.67
2019-03-15T10:30:21.756Z,98228.14
2019-03-15T10:32:51.275Z,98226.40
2019-03-15T10:35:20.696Z,98218.48
2019-03-15T10:37:50.124Z,98228.28
2019-03-15T10:40:23.311Z,98229.80
2019-03-15T10:42:55.338Z,98226.81
2019-03-15T10:45:23.915Z,98214.66
2019-03-15T10:47:53.339Z,98217.75
2019-03-15T10:50:22.777Z,98216.52
2019-03-15T10:52:53.804Z,98224.74
2019-03-15T10:55:23.519Z,98220.03
2019-03-15T10:57:52.950Z,98236.11
2019-03-15T11:00:22.628Z,98235.41
2019-03-15T11:02:52.060Z,98237.20
2019-03-15T11:05:21.510Z,98240.46
2019-03-15T11:07:50.942Z,98233.33
2019-03-15T11:10:20.387Z,98242.59
2019-03-15T11:12:50.151Z,98229.34
2019-03-15T11:15:19.660Z,98235.89
2019-03-15T11:17:49.096Z,98230.24
2019-03-15T11:20:18.535Z,98230.44
2019-03-15T11:22:47.960Z,98234.79
2019-03-15T11:25:17.394Z,98242.14
2019-03-15T11:27:46.819Z,98249.80
2019-03-15T11:30:20.327Z,98236.75
2019-03-15T11:32:49.775Z,98241.44
2019-03-15T11:35:21.259Z,98245.31
2019-03-15T11:37:50.654Z,98249.77
2019-03-15T11:40:20.179Z,98247.55
2019-03-15T11:42:49.594Z,98253.39
2019-03-15T11:45:19.047Z,98256.33
2019-03-15T11:48:02.491Z,98255.09
2019-03-15T11:50:23.237Z,98253.26
2019-03-15T11:52:52.660Z,98258.47
2019-03-15T11:55:22.107Z,98251.08
2019-03-15T11:57:51.779Z,98251.08
2019-03-15T12:00:22.344Z,98252.38
2019-03-15T12:02:51.771Z,98257.31
2019-03-15T12:05:21.301Z,98257.22
2019-03-15T12:07:50.706Z,98254.68
2019-03-15T12:10:20.150Z,98260.66
2019-03-15T12:12:49.574Z,98249.52
2019-03-15T12:15:20.122Z,98247.75
2019-03-15T12:17:49.553Z,98246.01
2019-03-15T12:20:19.000Z,98248.41
2019-03-15T12:22:48.430Z,98257.86
2019-03-15T12:25:17.875Z,98252.30
2019-03-15T12:27:47.305Z,98255.13
2019-03-15T12:30:20.084Z,98264.36
2019-03-15T12:32:49.524Z,98260.14
2019-03-15T12:35:18.969Z,98259.62
2019-03-15T12:37:48.401Z,98257.95
2019-03-15T12:40:18.780Z,98261.31
2019-03-15T12:42:48.284Z,98264.44
2019-03-15T12:45:17.722Z,98262.87
2019-03-15T12:47:47.155Z,98272.05
2019-03-15T12:50:17.361Z,98271.12
2019-03-15T12:52:48.600Z,98268.73
2019-03-15T12:55:18.243Z,98272.61
2019-03-15T12:57:49.335Z,98279.28
2019-03-15T13:00:20.346Z,98263.93
2019-03-15T13:02:49.781Z,98273.56
2019-03-15T13:05:19.229Z,98279.30
2019-03-15T13:07:48.658Z,98278.02
2019-03-15T13:10:23.994Z,98285.75
2019-03-15T13:12:53.430Z,98281.88
2019-03-15T13:15:22.897Z,98281.13
2019-03-15T13:17:52.317Z,98282.42
2019-03-15T13:20:21.754Z,98278.89
2019-03-15T13:22:51.196Z,98278.16
2019-03-15T13:25:20.636Z,98290.20
2019-03-15T13:27:50.135Z,98292.25
2019-03-15T13:30:19.570Z,98292.34
2019-03-15T13:32:49.004Z,98294.30
2019-03-15T13:35:18.448Z,98292.25
2019-03-15T13:37:47.879Z,98296.38
2019-03-15T13:40:19.418Z,98297.42
2019-03-15T13:42:48.837Z,98291.11
2019-03-15T13:45:18.897Z,98290.95
2019-03-15T13:47:48.340Z,98289.29
2019-03-15T13:50:21.817Z,98291.13
2019-03-15T13:52:51.248Z,98289.22
2019-03-15T13:55:20.693Z,98286.36
2019-03-15T13:57:50.120Z,98287.02
2019-03-15T14:00:20.392Z,98287.09
2019-03-15T14:02:49.841Z,98293.47
2019-03-15T14:05:19.289Z,98296.36
2019-03-15T14:07:48.718Z,98291.55
2019-03-15T14:10:18.527Z,98290.73
2019-03-15T14:12:47.972Z,98290.91
2019-03-15T14:15:20.914Z,98295.09
2019-03-15T14:17:50.350Z,98285.84
2019-03-15T14:20:19.780Z,98293.52
2019-03-15T14:22:49.231Z,98302.13
2019-03-15T14:25:27.859Z,98306.47
2019-03-15T14:27:57.342Z,98296.20
2019-03-15T14:30:26.753Z,98307.48
2019-03-15T14:32:56.197Z,98310.27
2019-03-15T14:35:25.638Z,98298.80
2019-03-15T14:37:55.306Z,98307.22
2019-03-15T14:40:25.074Z,98310.08
2019-03-15T14:42:54.634Z,98320.25
2019-03-15T14:45:24.619Z,98311.57
2019-03-15T14:47:54.090Z,98310.37
2019-03-15T14:50:23.521Z,98308.69
2019-03-15T14:52:52.965Z,98311.11
2019-03-15T14:55:22.396Z,98308.98
2019-03-15T14:57:53.502Z,98303.41
2019-03-15T15:00:23.173Z,98307.20
2019-03-15T15:02:52.619Z,98302.95
2019-03-15T15:05:22.127Z,98314.16
2019-03-15T15:07:51.637Z,98315.07
2019-03-15T15:10:21.077Z,98318.80
2019-03-15T15:12:50.528Z,98324.34
2019-03-15T15:15:20.889Z,98319.16
2019-03-15T15:17:50.334Z,98316.85
2019-03-15T15:20:19.786Z,98329.81
2019-03-15T15:22:49.232Z,98324.14
2019-03-15T15:25:19.058Z,98312.38
2019-03-15T15:27:48.745Z,98324.92
2019-03-15T15:30:18.923Z,98310.11
2019-03-15T15:32:48.355Z,98314.66
2019-03-15T15:35:17.786Z,98318.22
2019-03-15T15:37:47.230Z,98318.22
2019-03-15T15:40:18.377Z,98330.72
2019-03-15T15:42:47.815Z,98326.77
2019-03-15T15:45:17.250Z,98332.86
2019-03-15T15:47:46.698Z,98331.21
2019-03-15T15:50:16.873Z,98321.94
2019-03-15T15:52:46.322Z,98327.86
2019-03-15T15:55:16.770Z,98327.86
2019-03-15T15:57:46.207Z,98324.97
2019-03-15T16:00:17.443Z,98322.66
2019-03-15T16:02:46.890Z,98320.08
2019-03-15T16:05:16.396Z,98320.09
2019-03-15T16:07:45.840Z,98321.38
2019-03-15T16:10:18.294Z,98328.26
2019-03-15T16:12:47.315Z,98339.34
2019-03-15T16:15:20.181Z,98345.08
2019-03-15T16:17:49.798Z,98346.37
2019-03-15T16:20:19.229Z,98346.20
2019-03-15T16:22:48.665Z,98332.10
2019-03-15T16:25:18.103Z,98330.59
2019-03-15T16:27:47.544Z,98329.90
2019-03-15T16:30:19.950Z,98333.48
2019-03-15T16:32:49.643Z,98334.33
2019-03-15T16:35:19.076Z,98340.08
2019-03-15T16:37:48.518Z,98346.37
2019-03-15T16:40:17.953Z,98347.56
2019-03-15T16:42:47.390Z,98347.12
2019-03-15T16:45:26.122Z,98342.32
2019-03-15T16:47:55.561Z,98353.80
2019-03-15T16:50:24.989Z,98359.27
2019-03-15T16:52:54.429Z,98356.48
2019-03-15T16:55:23.864Z,98366.21
2019-03-15T16:57:53.303Z,98371.11
2019-03-15T17:00:22.742Z,98363.62
2019-03-15T17:02:52.183Z,98379.73
2019-03-15T17:05:21.611Z,98387.70
2019-03-15T17:07:51.425Z,98390.10
2019-03-15T17:10:21.223Z,98389.00
2019-03-15T17:12:50.670Z,98381.03
2019-03-15T17:15:28.654Z,98387.61
2019-03-15T17:17:58.151Z,98395.48
2019-03-15T17:20:27.577Z,98387.96
2019-03-15T17:22:57.023Z,98395.28
2019-03-15T17:25:26.456Z,98397.52
2019-03-15T17:27:55.903Z,98396.38
2019-03-15T17:30:25.341Z,98393.80
2019-03-15T17:32:54.781Z,98398.27
2019-03-15T17:35:24.211Z,98400.83
2019-03-15T17:37:53.666Z,98394.54
2019-03-15T17:40:23.359Z,98402.88
2019-03-15T17:42:52.804Z,98388.25
2019-03-15T17:45:22.309Z,98394.09
2019-03-15T17:47:51.760Z,98405.37
2019-03-15T17:50:27.092Z,98409.25
2019-03-15T17:52:56.535Z,98403.81
2019-03-15T17:55:25.964Z,98407.16
2019-03-15T17:57:57.048Z,98413.25
2019-03-15T18:00:47.511Z,98404.72
2019-03-15T18:03:21.463Z,98410.20
2019-03-15T18:05:48.178Z,98406.41
2019-03-15T18:08:17.622Z,98395.09
2019-03-15T18:10:47.052Z,98394.64
2019-03-15T18:13:16.498Z,98392.04
2019-03-15T18:15:45.933Z,98394.73
2019-03-15T18:18:15.375Z,98402.86
2019-03-15T18:20:44.809Z,98411.94
2019-03-15T18:23:14.246Z,98401.77
2019-03-15T18:25:43.693Z,98413.83
2019-03-15T18:28:13.114Z,98410.75
2019-03-15T18:30:42.551Z,98416.97
2019-03-15T18:33:11.999Z,98405.56
2019-03-15T18:35:41.427Z,98411.30
2019-03-15T18:38:10.865Z,98402.32
2019-03-15T18:40:40.389Z,98407.31
2019-03-15T18:43:09.817Z,98405.66
2019-03-15T18:45:39.264Z,98417.72
2019-03-15T18:48:08.691Z,98413.80
2019-03-15T18:50:38.385Z,98404.72
2019-03-15T18:53:07.816Z,98402.97
2019-03-15T18:55:37.303Z,98421.41
2019-03-15T18:58:06.727Z,98416.97
2019-03-15T19:00:36.177Z,98403.06
2019-03-15T19:03:05.680Z,98408.90
2019-03-15T19:05:35.119Z,98412.23
2019-03-15T19:08:04.581Z,98421.67
2019-03-15T19:10:34.029Z,98414.45
2019-03-15T19:13:03.455Z,98419.73
2019-03-15T19:15:32.902Z,98413.83
2019-03-15T19:18:02.331Z,98413.63
2019-03-15T19:20:31.779Z,98416.03
2019-03-15T19:23:01.204Z,98421.12
2019-03-15T19:25:30.655Z,98432.33
2019-03-15T19:28:00.114Z,98431.04
2019-03-15T19:30:29.556Z,98430.09
2019-03-15T19:32:59.011Z,98437.08
2019-03-15T19:35:28.523Z,98439.47
2019-03-15T19:37:57.948Z,98464.75
2019-03-15T19:40:27.403Z,98446.77
2019-03-15T19:42:56.859Z,98462.06
2019-03-15T19:45:26.350Z,98461.77
2019-03-15T19:47:55.801Z,98460.12
2019-03-15T19:50:25.238Z,98459.76
2019-03-15T19:52:54.672Z,98457.98
2019-03-15T19:55:24.120Z,98464.30
2019-03-15T19:57:53.539Z,98476.21
2019-03-15T20:00:23.450Z,98479.20
2019-03-15T20:02:52.908Z,98475.87
2019-03-15T20:05:22.358Z,98474.47
2019-03-15T20:07:54.743Z,98462.16
2019-03-15T20:10:24.194Z,98474.47
2019-03-15T20:12:53.626Z,98477.35
2019-03-15T20:15:23.071Z,98480.65
2019-03-15T20:17:52.583Z,98481.13
2019-03-15T20:20:22.039Z,98479.28
2019-03-15T20:22:51.773Z,98483.62
2019-03-15T20:25:21.221Z,98486.09
2019-03-15T20:27:50.648Z,98486.58
2019-03-15T20:30:26.918Z,98489.53
2019-03-15T20:32:56.559Z,98507.50
2019-03-15T20:35:26.015Z,98499.55
2019-03-15T20:37:55.452Z,98509.52
2019-03-15T20:40:24.912Z,98515.41
2019-03-15T20:42:54.347Z,98517.06
2019-03-15T20:45:31.017Z,98525.84
2019-03-15T20:48:00.445Z,98525.66
2019-03-15T20:50:29.885Z,98519.29
2019-03-15T20:53:08.725Z,98524.27
2019-03-15T20:55:30.516Z,98522.31
2019-03-15T20:57:59.966Z,98522.61
2019-03-15T21:00:35.875Z,98513.63
2019-03-15T21:03:00.538Z,98514.74
2019-03-15T21:05:29.978Z,98528.80
2019-03-15T21:07:59.412Z,98535.33
2019-03-15T21:10:29.089Z,98534.43
2019-03-15T21:12:58.527Z,98538.50
2019-03-15T21:15:28.043Z,98537.44
2019-03-15T21:17:57.481Z,98561.20
2019-03-15T21:20:26.914Z,98546.99
2019-03-15T21:22:56.362Z,98552.89
2019-03-15T21:25:25.789Z,98542.77
2019-03-15T21:27:55.238Z,98557.02
2019-03-15T21:30:27.548Z,98542.31
2019-03-15T21:32:56.999Z,98550.27
2019-03-15T21:35:26.428Z,98552.95
2019-03-15T21:37:55.957Z,98547.64
2019-03-15T21:40:25.392Z,98549.75
2019-03-15T21:42:54.839Z,98549.47
2019-03-15T21:45:24.273Z,98561.13
2019-03-15T21:47:53.716Z,98565.86
2019-03-15T21:50:23.990Z,98569.70
2019-03-15T21:52:53.436Z,98565.95
2019-03-15T21:55:22.884Z,98566.63
2019-03-15T21:57:52.556Z,98563.09
2019-03-15T22:00:22.259Z,98562.47
2019-03-15T22:02:51.770Z,98569.61
2019-03-15T22:05:21.203Z,98569.12
2019-03-15T22:07:50.639Z,98583.73
2019-03-15T22:10:20.063Z,98577.16
2019-03-15T22:12:49.509Z,98583.86
2019-03-15T22:15:19.024Z,98585.23
2019-03-15T22:17:48.488Z,98578.55
2019-03-15T22:20:18.446Z,98576.89
2019-03-15T22:22:47.889Z,98578.91
2019-03-15T22:25:17.322Z,98588.82
2019-03-15T22:27:49.926Z,98584.17
2019-03-15T22:30:17.928Z,98590.91
2019-03-15T22:32:47.628Z,98591.45
2019-03-15T22:35:17.056Z,98592.57
2019-03-15T22:37:46.563Z,98600.83
2019-03-15T22:40:16.009Z,98601.36
2019-03-15T22:42:45.454Z,98596.86
2019-03-15T22:45:15.508Z,98601.32
2019-03-15T22:47:44.951Z,98599.18
2019-03-15T22:50:15.026Z,98604.27
2019-03-15T22:52:44.464Z,98601.10
2019-03-15T22:55:14.031Z,98601.28
2019-03-15T22:57:43.478Z,98609.94
2019-03-15T23:00:19.115Z,98602.98
2019-03-15T23:02:48.940Z,98602.30
2019-03-15T23:05:18.381Z,98599.84
2019-03-15T23:07:47.828Z,98605.25
2019-03-15T23:10:17.258Z,98600.03
2019-03-15T23:12:46.705Z,98595.96
2019-03-15T23:15:16.136Z,98598.52
2019-03-15T23:17:45.575Z,98601.69
2019-03-15T23:20:15.288Z,98602.48
2019-03-15T23:22:44.720Z,98601.95
2019-03-15T23:25:14.153Z,98603.60
2019-03-15T23:27:43.606Z,98607.48
2019-03-15T23:30:15.547Z,98605.39
2019-03-15T23:32:45.264Z,98611.69
2019-03-15T23:35:14.759Z,98618.88
2019-03-15T23:37:44.201Z,98623.61
2019-03-15T23:40:15.438Z,98624.50
2019-03-15T23:42:44.873Z,98627.09
2019-03-15T23:45:14.455Z,98618.11
2019-03-15T23:47:43.884Z,98625.71
2019-03-15T23:50:16.201Z,98625.12
2019-03-15T23:52:45.634Z,98623.13
2019-03-15T23:55:15.091Z,98623.20
2019-03-15T23:57:44.508Z,98626.95
